Mountain Home, TN (37684)

10:34 AM EST on February 13, 2016 (GMT -0500)
ETSU Tree Streets W4BQK | | Change Station
CLOSE
Current Station
Personal Weather Station
Location: Johnson City, TN
Elevation: 1703 ft
Nearby Weather Stations

Elev 1703 ft 36.31 °N, 82.36 °W | Updated 2 minutes ago

Mostly Cloudy
Mostly Cloudy
21.0 °F
Feels Like 13 °F
N
6.0
Wind Variable Wind from West
Gusts 15.0 mph

Today
High -- | Low -- °F
--% Chance of Precip.
Yesterday
High -- | Low -- °F
Precip. -- in
Pressure 30.38 in
Visibility 10.0 miles
Clouds Mostly Cloudy 3500 ft
Windchill 13 °F
Dew Point 11 °F
Humidity 64%
Rainfall 0.00 in
Snow Depth Not available.
7:19 AM 6:08 PM
Waxing Crescent, 31% visible
METAR KTRI 131453Z 32009KT 10SM BKN035 M06/M13 A3036 RMK AO2 SLP288 T10611128 51019
Pressure 30.38 in
Visibility 10.0 miles
Clouds Mostly Cloudy 3500 ft
Windchill 13 °F
Dew Point 11 °F
Humidity 64%
Rainfall 0.00 in
Snow Depth Not available.
7:19 AM 6:08 PM
Waxing Crescent, 31% visible
METAR KTRI 131453Z 32009KT 10SM BKN035 M06/M13 A3036 RMK AO2 SLP288 T10611128 51019

10-Day Weather Forecast

Almanac

Astronomy

Feb. 13, 2016 Rise Set
Actual Time
Civil Twilight
Nautical Twilight
Astronomical Twilight
Moon
Length of Visible Light
Length of Day
Tomorrow will be .
, % of the Moon is Illuminated

Today's Extremes

State Highs State Lows

Community

WunderPhotos

Upload Photos

1,892,585 photos uploaded!

WunderBlog® & News

Nearby

Air Quality

  Air Quality AQ Index Pollutant
Not available.

Snow Depth

Station Depth Elevation

Earthquake Activity

City Distance Mag. Time & Date
Minimum magnitude displayed is 2.5.

Coastal Water Temperatures

Place Temperature

Stations

Nearby Weather Stations

Station Location Temp. Windchill Dew Point Humidity Wind Precip. Elev Updated Type
                   

Watches & Warnings

There are currently no watches in effect.